createdAt,value
2019-06-07T00:02:02.324Z,19.13
2019-06-07T00:04:34.627Z,19.02
2019-06-07T00:07:09.002Z,19.28
2019-06-07T00:09:40.830Z,19.21
2019-06-07T00:12:14.920Z,19.17
2019-06-07T00:14:46.596Z,19.00
2019-06-07T00:17:20.215Z,18.87
2019-06-07T00:19:52.515Z,19.06
2019-06-07T00:22:32.857Z,18.65
2019-06-07T00:24:58.267Z,18.58
2019-06-07T00:27:30.418Z,18.66
2019-06-07T00:30:29.520Z,18.60
2019-06-07T00:32:37.982Z,18.47
2019-06-07T00:35:11.949Z,18.44
2019-06-07T00:37:44.089Z,18.70
2019-06-07T00:40:24.986Z,18.51
2019-06-07T00:42:50.010Z,18.35
2019-06-07T00:45:24.515Z,18.31
2019-06-07T00:47:55.788Z,18.48
2019-06-07T00:50:28.869Z,18.31
2019-06-07T00:53:26.805Z,18.32
2019-06-07T00:55:34.769Z,18.11
2019-06-07T00:58:07.023Z,17.92
2019-06-07T01:00:39.265Z,17.98
2019-06-07T01:03:12.585Z,18.23
2019-06-07T01:05:45.010Z,17.88
2019-06-07T01:08:19.976Z,17.79
2019-06-07T01:10:53.932Z,17.75
2019-06-07T01:13:26.786Z,17.70
2019-06-07T01:16:00.407Z,17.66
2019-06-07T01:18:38.341Z,17.55
2019-06-07T01:21:06.219Z,17.51
2019-06-07T01:26:11.961Z,17.63
2019-06-07T01:28:44.011Z,18.03
2019-06-07T01:31:17.719Z,18.05
2019-06-07T01:33:51.121Z,17.99
2019-06-07T01:36:25.227Z,17.74
2019-06-07T01:38:57.008Z,17.68
2019-06-07T01:41:30.802Z,17.72
2019-06-07T01:44:03.760Z,17.64
2019-06-07T01:46:35.872Z,17.68
2019-06-07T01:49:07.921Z,17.51
2019-06-07T01:51:39.991Z,17.38
2019-06-07T01:54:49.296Z,17.38
2019-06-07T01:56:45.988Z,17.25
2019-06-07T01:59:21.455Z,17.18
2019-06-07T02:01:52.072Z,17.18
2019-06-07T02:04:27.325Z,17.17
2019-06-07T02:06:57.903Z,17.19
2019-06-07T02:09:31.926Z,17.22
2019-06-07T02:12:24.676Z,17.23
2019-06-07T02:14:37.606Z,17.30
2019-06-07T02:17:09.762Z,17.50
2019-06-07T02:19:42.890Z,17.69
2019-06-07T02:22:15.021Z,18.10
2019-06-07T02:25:34.135Z,18.14
2019-06-07T02:27:24.214Z,18.32
2019-06-07T02:29:54.906Z,18.46
2019-06-07T02:32:29.721Z,18.45
2019-06-07T02:35:00.991Z,18.60
2019-06-07T02:37:36.541Z,18.66
2019-06-07T02:40:08.461Z,19.31
2019-06-07T02:42:42.785Z,19.24
2019-06-07T02:45:16.299Z,19.63
2019-06-07T02:47:48.913Z,20.17
2019-06-07T02:50:21.180Z,20.64
2019-06-07T02:52:53.372Z,20.47
2019-06-07T02:55:29.607Z,20.68
2019-06-07T02:58:00.977Z,20.42
2019-06-07T03:01:08.883Z,21.34
2019-06-07T03:03:24.647Z,21.25
2019-06-07T03:05:58.168Z,21.79
2019-06-07T03:08:35.483Z,21.87
2019-06-07T03:11:07.199Z,22.23
2019-06-07T03:13:41.022Z,22.50
2019-06-07T03:16:16.541Z,22.77
2019-06-07T03:18:59.762Z,22.42
2019-06-07T03:21:42.065Z,22.95
2019-06-07T03:24:14.146Z,23.08
2019-06-07T03:27:32.210Z,23.30
2019-06-07T03:29:20.126Z,23.16
2019-06-07T03:31:52.256Z,23.50
2019-06-07T03:34:24.403Z,23.37
2019-06-07T03:36:56.471Z,23.54
2019-06-07T03:39:29.576Z,23.55
2019-06-07T03:42:06.664Z,23.59
2019-06-07T03:44:40.619Z,23.90
2019-06-07T03:47:09.944Z,23.83
2019-06-07T03:49:43.156Z,23.62
2019-06-07T03:52:15.363Z,23.34
2019-06-07T03:54:47.436Z,23.78
2019-06-07T03:57:19.532Z,24.05
2019-06-07T03:59:51.706Z,24.12
2019-06-07T04:02:23.914Z,24.26
2019-06-07T04:04:55.975Z,24.32
2019-06-07T04:07:29.388Z,24.48
2019-06-07T04:10:01.739Z,24.31
2019-06-07T04:12:38.605Z,24.35
2019-06-07T04:15:07.971Z,24.43
2019-06-07T04:17:59.711Z,24.36
2019-06-07T04:20:13.775Z,24.62
2019-06-07T04:25:20.043Z,24.66
2019-06-07T04:27:52.079Z,24.80
2019-06-07T04:30:45.159Z,24.24
2019-06-07T04:33:17.137Z,24.30
2019-06-07T04:35:49.173Z,24.54
2019-06-07T04:38:21.952Z,24.59
2019-06-07T04:40:55.064Z,25.00
2019-06-07T04:43:31.009Z,25.11
2019-06-07T04:46:04.204Z,25.53
2019-06-07T04:48:41.380Z,25.90
2019-06-07T04:51:12.966Z,26.15
2019-06-07T04:53:44.972Z,26.74
2019-06-07T04:56:17.001Z,26.38
2019-06-07T04:58:48.986Z,25.67
2019-06-07T05:01:27.384Z,25.01
2019-06-07T05:03:54.906Z,24.54
2019-06-07T05:06:26.955Z,25.74
2019-06-07T05:08:58.992Z,26.33
2019-06-07T05:11:31.979Z,26.49
2019-06-07T05:14:04.801Z,26.71
2019-06-07T05:16:40.710Z,26.73
2019-06-07T05:19:10.868Z,27.52
2019-06-07T05:22:01.397Z,27.69
2019-06-07T05:24:16.513Z,27.74
2019-06-07T05:26:48.563Z,27.26
2019-06-07T05:29:20.607Z,27.60
2019-06-07T05:31:53.882Z,28.22
2019-06-07T05:34:25.849Z,28.33
2019-06-07T05:37:10.959Z,27.22
2019-06-07T05:39:32.750Z,28.34
2019-06-07T05:42:05.822Z,27.54
2019-06-07T05:44:39.974Z,26.45
2019-06-07T05:47:11.828Z,28.38
2019-06-07T05:49:47.349Z,29.19
2019-06-07T05:52:19.257Z,29.85
2019-06-07T05:54:51.347Z,29.95
2019-06-07T05:57:23.407Z,30.08
2019-06-07T05:59:55.453Z,29.61
2019-06-07T06:02:27.495Z,28.67
2019-06-07T06:04:59.559Z,30.07
2019-06-07T06:07:31.642Z,31.51
2019-06-07T06:10:04.601Z,31.83
2019-06-07T06:12:40.883Z,31.82
2019-06-07T06:15:10.600Z,31.83
2019-06-07T06:17:46.047Z,31.19
2019-06-07T06:20:17.161Z,31.95
2019-06-07T06:22:51.132Z,32.38
2019-06-07T06:25:32.934Z,31.56
2019-06-07T06:28:10.093Z,33.07
2019-06-07T06:30:30.607Z,31.11
2019-06-07T06:33:02.624Z,31.81
2019-06-07T06:35:34.694Z,28.76
2019-06-07T06:38:06.761Z,28.32
2019-06-07T06:40:42.400Z,28.23
2019-06-07T06:43:12.664Z,27.71
2019-06-07T06:45:48.682Z,27.34
2019-06-07T06:48:18.666Z,27.22
2019-06-07T06:50:52.680Z,26.97
2019-06-07T06:53:24.593Z,26.83
2019-06-07T06:55:56.573Z,27.71
2019-06-07T06:58:29.750Z,28.27
2019-06-07T07:01:06.552Z,27.98
2019-06-07T07:04:01.192Z,28.12
2019-06-07T07:06:25.799Z,27.77
2019-06-07T07:08:47.936Z,27.30
2019-06-07T07:11:23.246Z,26.82
2019-06-07T07:13:56.321Z,26.98
2019-06-07T07:16:26.701Z,26.89
2019-06-07T07:18:58.764Z,27.03
2019-06-07T07:21:30.939Z,26.62
2019-06-07T07:24:20.143Z,26.29
2019-06-07T07:26:36.936Z,26.38
2019-06-07T07:29:09.335Z,26.19
2019-06-07T07:31:42.875Z,26.47
2019-06-07T07:34:33.437Z,26.58
2019-06-07T07:36:52.929Z,26.49
2019-06-07T07:39:22.502Z,26.34
2019-06-07T07:42:17.882Z,26.26
2019-06-07T07:44:28.423Z,25.73
2019-06-07T07:47:00.425Z,25.89
2019-06-07T07:49:32.559Z,25.92
2019-06-07T07:52:04.513Z,25.49
2019-06-07T07:54:36.526Z,26.13
2019-06-07T07:57:08.541Z,26.51
2019-06-07T07:59:47.658Z,26.55
2019-06-07T08:02:14.433Z,26.32
2019-06-07T08:05:17.698Z,26.08
2019-06-07T08:07:20.178Z,25.87
2019-06-07T08:09:57.707Z,25.82
2019-06-07T08:12:25.895Z,25.91
2019-06-07T08:15:02.423Z,26.21
2019-06-07T08:17:31.662Z,26.29
2019-06-07T08:20:05.598Z,26.05
2019-06-07T08:22:37.601Z,25.98
2019-06-07T08:25:10.228Z,26.18
2019-06-07T08:27:42.362Z,26.32
2019-06-07T08:30:47.123Z,26.25
2019-06-07T08:32:54.976Z,26.29
2019-06-07T08:36:03.575Z,25.98
2019-06-07T08:40:32.328Z,26.25
2019-06-07T08:43:18.315Z,25.79
2019-06-07T08:45:38.369Z,25.59
2019-06-07T08:48:27.099Z,25.27
2019-06-07T08:50:44.076Z,25.28
2019-06-07T08:53:16.067Z,25.43
2019-06-07T08:55:48.195Z,25.54
2019-06-07T08:58:20.169Z,25.83
2019-06-07T09:00:53.565Z,25.79
2019-06-07T09:03:26.059Z,25.60
2019-06-07T09:06:06.151Z,25.48
2019-06-07T09:08:31.833Z,25.55
2019-06-07T09:11:10.203Z,25.54
2019-06-07T09:13:37.656Z,25.55
2019-06-07T09:16:09.759Z,25.43
2019-06-07T09:18:44.386Z,25.09
2019-06-07T09:21:15.928Z,25.27
2019-06-07T09:23:47.953Z,25.07
2019-06-07T09:26:20.267Z,24.85
2019-06-07T09:28:53.248Z,24.69
2019-06-07T09:31:25.324Z,24.51
2019-06-07T09:34:04.163Z,24.52
2019-06-07T09:36:31.159Z,24.71
2019-06-07T09:39:08.278Z,24.66
2019-06-07T09:41:47.572Z,24.78
2019-06-07T09:44:23.760Z,25.04
2019-06-07T09:46:46.224Z,24.98
2019-06-07T09:49:30.543Z,24.82
2019-06-07T09:51:51.975Z,25.09
2019-06-07T09:55:03.713Z,24.97
2019-06-07T09:57:00.354Z,24.81
2019-06-07T09:59:32.558Z,24.69
2019-06-07T10:02:08.237Z,24.33
2019-06-07T10:04:38.388Z,24.67
2019-06-07T10:07:28.871Z,24.73
2019-06-07T10:12:19.461Z,24.47
2019-06-07T10:14:51.533Z,24.57
2019-06-07T10:17:23.588Z,24.80
2019-06-07T10:19:55.570Z,24.89
2019-06-07T10:22:27.884Z,24.98
2019-06-07T10:24:59.969Z,24.59
2019-06-07T10:27:32.018Z,24.65
2019-06-07T10:30:06.269Z,24.66
2019-06-07T10:32:39.515Z,24.60
2019-06-07T10:35:15.431Z,24.83
2019-06-07T10:37:45.677Z,24.82
2019-06-07T10:40:18.190Z,24.90
2019-06-07T10:42:50.260Z,24.94
2019-06-07T10:45:22.241Z,24.77
2019-06-07T10:47:54.366Z,25.05
2019-06-07T10:50:26.359Z,25.22
2019-06-07T10:52:58.394Z,25.07
2019-06-07T10:55:30.346Z,24.97
2019-06-07T10:58:02.766Z,24.85
2019-06-07T11:00:36.394Z,24.68
2019-06-07T11:03:09.801Z,24.75
2019-06-07T11:05:42.037Z,24.97
2019-06-07T11:08:15.046Z,24.99
2019-06-07T11:10:47.159Z,24.98
2019-06-07T11:13:19.193Z,25.18
2019-06-07T11:15:51.281Z,25.32
2019-06-07T11:18:23.368Z,25.42
2019-06-07T11:20:55.322Z,25.45
2019-06-07T11:23:27.518Z,25.49
2019-06-07T11:25:59.592Z,25.45
2019-06-07T11:28:31.610Z,25.51
2019-06-07T11:31:03.579Z,25.54
2019-06-07T11:33:35.680Z,25.37
2019-06-07T11:36:08.454Z,25.63
2019-06-07T11:38:40.732Z,25.83
2019-06-07T11:41:13.550Z,25.97
2019-06-07T11:43:45.607Z,26.03
2019-06-07T11:46:18.675Z,26.30
2019-06-07T11:48:50.628Z,26.17
2019-06-07T11:51:22.737Z,26.52
2019-06-07T11:53:54.814Z,26.64
2019-06-07T11:56:26.871Z,26.51
2019-06-07T11:58:58.911Z,26.53
2019-06-07T12:01:30.886Z,26.73
2019-06-07T12:04:03.068Z,26.96
2019-06-07T12:06:35.126Z,27.14
2019-06-07T12:09:08.618Z,27.20
2019-06-07T12:11:41.098Z,27.37
2019-06-07T12:14:13.182Z,27.53
2019-06-07T12:16:45.188Z,27.50
2019-06-07T12:19:19.782Z,27.49
2019-06-07T12:21:51.991Z,27.42
2019-06-07T12:24:24.029Z,27.61
2019-06-07T12:26:56.011Z,27.68
2019-06-07T12:29:28.132Z,27.73
2019-06-07T12:32:00.186Z,27.89
2019-06-07T12:34:32.417Z,27.91
2019-06-07T12:37:04.496Z,27.68
2019-06-07T12:39:36.706Z,27.69
2019-06-07T12:42:08.709Z,27.83
2019-06-07T12:44:40.954Z,27.94
2019-06-07T12:47:13.119Z,27.79
2019-06-07T12:49:45.441Z,27.91
2019-06-07T12:52:19.568Z,27.81
2019-06-07T12:54:51.493Z,27.84
2019-06-07T12:57:24.196Z,28.02
2019-06-07T12:59:56.294Z,28.24
2019-06-07T13:02:28.419Z,28.50
2019-06-07T13:05:04.539Z,28.88
2019-06-07T13:07:34.468Z,29.09
2019-06-07T13:10:08.842Z,28.83
2019-06-07T13:12:43.986Z,28.91
2019-06-07T13:15:16.684Z,29.01
2019-06-07T13:17:48.419Z,28.90
2019-06-07T13:20:20.628Z,28.97
2019-06-07T13:22:52.592Z,28.99
2019-06-07T13:25:41.187Z,28.92
2019-06-07T13:27:58.727Z,28.99
2019-06-07T13:30:30.847Z,29.18
2019-06-07T13:33:03.137Z,29.25
2019-06-07T13:35:35.264Z,29.31
2019-06-07T13:38:07.309Z,29.34
2019-06-07T13:40:39.437Z,29.49
2019-06-07T13:43:11.643Z,29.26
2019-06-07T13:45:43.759Z,28.99
2019-06-07T13:48:17.008Z,28.80
2019-06-07T13:50:49.517Z,28.58
2019-06-07T13:53:22.706Z,28.48
2019-06-07T13:55:54.949Z,28.46
2019-06-07T13:58:28.547Z,28.40
2019-06-07T14:01:01.847Z,28.46
2019-06-07T14:03:34.244Z,28.52
2019-06-07T14:06:06.350Z,28.56
2019-06-07T14:08:38.538Z,28.65
2019-06-07T14:11:10.536Z,28.87
2019-06-07T14:13:42.777Z,28.91
2019-06-07T14:16:14.926Z,29.05
2019-06-07T14:18:47.102Z,29.23
2019-06-07T14:21:20.395Z,29.07
2019-06-07T14:23:53.037Z,29.09
2019-06-07T14:26:25.284Z,29.22
2019-06-07T14:28:57.405Z,28.95
2019-06-07T14:31:30.275Z,28.60
2019-06-07T14:34:03.077Z,27.73
2019-06-07T14:36:35.583Z,26.75
2019-06-07T14:39:07.773Z,25.73
2019-06-07T14:41:40.136Z,23.55
2019-06-07T14:44:12.316Z,22.42
2019-06-07T14:46:44.467Z,21.87
2019-06-07T14:49:16.554Z,21.66
2019-06-07T14:51:48.705Z,21.51
2019-06-07T14:54:21.772Z,21.47
2019-06-07T14:56:53.928Z,21.57
2019-06-07T14:59:26.294Z,21.72
2019-06-07T15:01:58.747Z,21.86
2019-06-07T15:04:30.949Z,21.95
2019-06-07T15:07:03.101Z,22.01
2019-06-07T15:09:35.351Z,22.17
2019-06-07T15:12:07.492Z,22.30
2019-06-07T15:14:39.764Z,22.51
2019-06-07T15:17:14.150Z,22.81
2019-06-07T15:19:47.444Z,22.99
2019-06-07T15:22:19.589Z,23.28
2019-06-07T15:24:51.762Z,23.36
2019-06-07T15:27:24.159Z,23.45
2019-06-07T15:29:56.433Z,23.61
2019-06-07T15:32:30.621Z,23.76
2019-06-07T15:35:04.200Z,23.87
2019-06-07T15:37:36.706Z,23.96
2019-06-07T15:40:10.240Z,24.04
2019-06-07T15:42:52.101Z,24.20
2019-06-07T15:45:16.741Z,24.32
2019-06-07T15:47:48.866Z,24.43
2019-06-07T15:50:20.969Z,24.50
2019-06-07T15:52:53.777Z,24.56
2019-06-07T15:55:27.679Z,24.62
2019-06-07T15:57:59.889Z,24.73
2019-06-07T16:00:33.346Z,24.78
2019-06-07T16:03:06.644Z,24.80
2019-06-07T16:05:38.631Z,24.79
2019-06-07T16:08:10.806Z,24.77
2019-06-07T16:10:43.084Z,24.76
2019-06-07T16:13:16.001Z,24.65
2019-06-07T16:15:48.286Z,24.56
2019-06-07T16:18:20.414Z,24.46
2019-06-07T16:20:52.539Z,24.44
2019-06-07T16:23:24.731Z,24.37
2019-06-07T16:25:57.748Z,24.37
2019-06-07T16:28:29.990Z,24.37
2019-06-07T16:31:02.045Z,24.36
2019-06-07T16:33:34.700Z,24.31
2019-06-07T16:36:06.842Z,24.28
2019-06-07T16:38:40.111Z,24.23
2019-06-07T16:41:12.289Z,24.23
2019-06-07T16:43:44.829Z,24.26
2019-06-07T16:46:16.994Z,24.23
2019-06-07T16:48:49.219Z,24.26
2019-06-07T16:51:21.348Z,24.31
2019-06-07T16:53:53.678Z,24.31
2019-06-07T16:56:25.753Z,24.36
2019-06-07T16:58:57.920Z,24.32
2019-06-07T17:01:30.267Z,24.31
2019-06-07T17:04:02.512Z,24.17
2019-06-07T17:06:34.607Z,24.20
2019-06-07T17:09:08.423Z,24.05
2019-06-07T17:11:40.652Z,24.11
2019-06-07T17:14:13.159Z,24.10
2019-06-07T17:16:46.172Z,24.07
2019-06-07T17:19:19.377Z,24.11
2019-06-07T17:21:53.125Z,24.12
2019-06-07T17:24:26.833Z,24.04
2019-06-07T17:26:59.118Z,23.99
2019-06-07T17:29:31.373Z,23.93
2019-06-07T17:32:03.459Z,23.90
2019-06-07T17:34:35.679Z,23.91
2019-06-07T17:37:07.824Z,23.97
2019-06-07T17:39:40.623Z,24.06
2019-06-07T17:42:12.816Z,24.11
2019-06-07T17:44:45.033Z,24.18
2019-06-07T17:47:17.159Z,24.22
2019-06-07T17:49:50.036Z,24.12
2019-06-07T17:52:22.220Z,23.99
2019-06-07T17:54:54.367Z,24.08
2019-06-07T17:57:26.470Z,24.11
2019-06-07T17:59:58.690Z,24.26
2019-06-07T18:02:30.860Z,24.10
2019-06-07T18:05:04.860Z,23.95
2019-06-07T18:07:36.966Z,23.80
2019-06-07T18:10:10.459Z,23.74
2019-06-07T18:12:43.924Z,23.83
2019-06-07T18:15:18.063Z,23.73
2019-06-07T18:17:50.685Z,23.70
2019-06-07T18:20:22.802Z,23.72
2019-06-07T18:22:57.202Z,23.72
2019-06-07T18:25:29.633Z,23.89
2019-06-07T18:28:01.730Z,23.70
2019-06-07T18:30:33.965Z,23.72
2019-06-07T18:33:06.378Z,23.67
2019-06-07T18:35:38.579Z,23.67
2019-06-07T18:38:11.759Z,23.52
2019-06-07T18:40:43.871Z,23.59
2019-06-07T18:43:15.962Z,23.57
2019-06-07T18:45:49.252Z,23.63
2019-06-07T18:48:21.444Z,23.79
2019-06-07T18:50:54.708Z,23.69
2019-06-07T18:53:27.034Z,23.68
2019-06-07T18:55:59.192Z,23.57
2019-06-07T18:58:31.292Z,23.38
2019-06-07T19:01:03.522Z,23.48
2019-06-07T19:03:36.577Z,23.41
2019-06-07T19:06:08.744Z,23.28
2019-06-07T19:08:40.922Z,23.30
2019-06-07T19:11:13.103Z,23.24
2019-06-07T19:13:45.251Z,23.16
2019-06-07T19:16:17.387Z,23.13
2019-06-07T19:18:49.765Z,23.06
2019-06-07T19:21:21.902Z,23.14
2019-06-07T19:23:54.120Z,23.19
2019-06-07T19:26:26.315Z,23.05
2019-06-07T19:28:58.878Z,23.00
2019-06-07T19:31:31.126Z,22.88
2019-06-07T19:34:03.301Z,22.82
2019-06-07T19:36:48.286Z,22.79
2019-06-07T19:39:10.421Z,22.59
2019-06-07T19:41:42.666Z,22.55
2019-06-07T19:44:14.775Z,22.33
2019-06-07T19:46:46.953Z,22.44
2019-06-07T19:49:19.084Z,22.35
2019-06-07T19:51:51.212Z,22.35
2019-06-07T19:54:23.318Z,22.28
2019-06-07T19:56:55.540Z,22.21
2019-06-07T19:59:28.780Z,22.34
2019-06-07T20:02:02.115Z,22.15
2019-06-07T20:04:34.328Z,21.98
2019-06-07T20:07:06.463Z,22.17
2019-06-07T20:09:38.537Z,21.96
2019-06-07T20:12:10.671Z,21.94
2019-06-07T20:14:42.784Z,21.86
2019-06-07T20:17:15.276Z,21.86
2019-06-07T20:19:47.557Z,21.75
2019-06-07T20:22:19.660Z,21.76
2019-06-07T20:24:51.754Z,21.61
2019-06-07T20:27:24.198Z,21.64
2019-06-07T20:29:56.335Z,21.47
2019-06-07T20:32:28.454Z,21.39
2019-06-07T20:35:01.655Z,21.46
2019-06-07T20:37:34.085Z,21.42
2019-06-07T20:40:22.395Z,21.24
2019-06-07T20:42:44.677Z,21.17
2019-06-07T20:45:30.076Z,21.23
2019-06-07T20:47:50.634Z,21.03
2019-06-07T20:50:22.676Z,21.00
2019-06-07T20:52:54.750Z,20.95
2019-06-07T20:55:26.849Z,20.87
2019-06-07T20:57:59.189Z,20.75
2019-06-07T21:00:31.286Z,21.11
2019-06-07T21:03:03.440Z,21.01
2019-06-07T21:05:35.520Z,21.28
2019-06-07T21:08:10.783Z,20.99
2019-06-07T21:10:41.428Z,20.81
2019-06-07T21:13:13.636Z,20.67
2019-06-07T21:15:49.120Z,20.68
2019-06-07T21:18:20.218Z,20.83
2019-06-07T21:20:52.624Z,20.52
2019-06-07T21:23:24.876Z,20.74
2019-06-07T21:25:56.950Z,20.52
2019-06-07T21:28:29.110Z,20.65
2019-06-07T21:31:03.410Z,20.40
2019-06-07T21:33:34.950Z,21.00
2019-06-07T21:36:08.230Z,20.68
2019-06-07T21:38:40.400Z,20.93
2019-06-07T21:41:12.690Z,20.79
2019-06-07T21:43:44.967Z,20.42
2019-06-07T21:46:20.486Z,20.32
2019-06-07T21:48:50.999Z,20.23
2019-06-07T21:51:23.111Z,20.30
2019-06-07T21:53:55.310Z,20.22
2019-06-07T21:56:27.407Z,20.36
2019-06-07T21:58:59.564Z,20.12
2019-06-07T22:01:32.957Z,20.01
2019-06-07T22:04:05.452Z,19.91
2019-06-07T22:06:37.643Z,19.85
2019-06-07T22:09:10.072Z,20.29
2019-06-07T22:11:42.250Z,20.18
2019-06-07T22:14:14.636Z,20.02
2019-06-07T22:16:46.784Z,19.92
2019-06-07T22:19:18.921Z,19.87
2019-06-07T22:22:02.171Z,19.75
2019-06-07T22:24:25.547Z,19.81
2019-06-07T22:26:57.615Z,20.22
2019-06-07T22:29:29.732Z,19.91
2019-06-07T22:32:01.812Z,19.83
2019-06-07T22:34:33.991Z,19.96
2019-06-07T22:37:07.152Z,20.10
2019-06-07T22:39:39.381Z,20.07
2019-06-07T22:42:13.465Z,20.51
2019-06-07T22:44:45.764Z,20.40
2019-06-07T22:47:18.356Z,20.45
2019-06-07T22:49:50.617Z,20.42
2019-06-07T22:52:22.767Z,19.99
2019-06-07T22:54:55.391Z,20.17
2019-06-07T22:57:29.168Z,19.99
2019-06-07T23:00:08.549Z,19.81
2019-06-07T23:02:35.456Z,20.12
2019-06-07T23:05:08.435Z,19.84
2019-06-07T23:07:40.655Z,19.93
2019-06-07T23:10:15.393Z,19.83
2019-06-07T23:12:47.503Z,19.75
2019-06-07T23:15:20.847Z,19.60
2019-06-07T23:17:53.060Z,19.49
2019-06-07T23:20:25.267Z,19.35
2019-06-07T23:22:57.334Z,19.97
2019-06-07T23:25:29.473Z,19.69
2019-06-07T23:28:01.530Z,19.84
2019-06-07T23:30:33.760Z,19.64
2019-06-07T23:33:05.826Z,19.54
2019-06-07T23:35:37.950Z,19.91
2019-06-07T23:38:10.882Z,19.60
2019-06-07T23:40:44.132Z,19.45
2019-06-07T23:43:17.467Z,19.31
2019-06-07T23:45:49.715Z,19.26
2019-06-07T23:48:21.746Z,19.37
2019-06-07T23:50:53.866Z,19.16
2019-06-07T23:53:25.952Z,19.23
2019-06-07T23:55:58.048Z,19.29
2019-06-07T23:58:30.101Z,19.45
